createdAt,value
2018-07-07T00:00:39.078Z,0
2018-07-07T00:01:39.058Z,0
2018-07-07T00:02:38.778Z,0
2018-07-07T00:03:39.031Z,0
2018-07-07T00:04:38.483Z,0
2018-07-07T00:05:39.007Z,0
2018-07-07T00:06:39.002Z,0
2018-07-07T00:07:38.722Z,0
2018-07-07T00:08:38.999Z,0
2018-07-07T00:09:38.975Z,0
2018-07-07T00:10:38.948Z,0
2018-07-07T00:11:38.940Z,0
2018-07-07T00:12:38.665Z,0
2018-07-07T00:13:38.642Z,0
2018-07-07T00:14:38.900Z,0
2018-07-07T00:15:38.891Z,0
2018-07-07T00:16:39.158Z,0
2018-07-07T00:17:39.125Z,0
2018-07-07T00:18:39.122Z,0
2018-07-07T00:19:38.312Z,0
2018-07-07T00:20:38.568Z,0
2018-07-07T00:21:38.553Z,0
2018-07-07T00:22:38.808Z,0
2018-07-07T00:23:38.799Z,0
2018-07-07T00:24:38.516Z,0
2018-07-07T00:25:38.523Z,0
2018-07-07T00:26:38.769Z,0
2018-07-07T00:27:38.756Z,0
2018-07-07T00:28:38.466Z,0
2018-07-07T00:29:38.456Z,0
2018-07-07T00:30:38.447Z,0
2018-07-07T00:31:38.754Z,0
2018-07-07T00:32:38.956Z,0
2018-07-07T00:33:38.680Z,0
2018-07-07T00:34:38.678Z,0
2018-07-07T00:35:38.920Z,0
2018-07-07T00:36:38.901Z,0
2018-07-07T00:37:38.363Z,0
2018-07-07T00:38:38.622Z,0
2018-07-07T00:39:38.606Z,0
2018-07-07T00:40:38.879Z,0
2018-07-07T00:41:38.644Z,0
2018-07-07T00:42:38.863Z,0
2018-07-07T00:43:38.827Z,0
2018-07-07T00:44:38.812Z,0
2018-07-07T00:45:38.804Z,0
2018-07-07T00:46:38.524Z,0
2018-07-07T00:47:38.516Z,0
2018-07-07T00:48:38.508Z,0
2018-07-07T00:49:38.232Z,0
2018-07-07T00:50:38.484Z,0
2018-07-07T00:51:38.209Z,0
2018-07-07T00:52:38.193Z,0
2018-07-07T00:53:38.446Z,0
2018-07-07T00:54:38.590Z,0
2018-07-07T00:55:38.425Z,0
2018-07-07T00:56:38.466Z,0
2018-07-07T00:57:38.136Z,0
2018-07-07T00:58:38.651Z,0
2018-07-07T00:59:38.648Z,0
2018-07-07T01:00:38.368Z,0
2018-07-07T01:01:38.612Z,0
2018-07-07T01:02:38.602Z,0
2018-07-07T01:03:38.345Z,0
2018-07-07T01:04:38.318Z,0
2018-07-07T01:05:38.309Z,0
2018-07-07T01:06:38.044Z,0
2018-07-07T01:07:38.552Z,0
2018-07-07T01:08:38.012Z,0
2018-07-07T01:09:38.692Z,0
2018-07-07T01:10:37.737Z,0
2018-07-07T01:11:37.710Z,0
2018-07-07T01:12:38.230Z,0
2018-07-07T01:13:38.485Z,0
2018-07-07T01:14:38.485Z,0
2018-07-07T01:15:38.190Z,0
2018-07-07T01:16:38.446Z,0
2018-07-07T01:17:37.906Z,0
2018-07-07T01:18:38.422Z,0
2018-07-07T01:19:38.155Z,0
2018-07-07T01:20:37.606Z,0
2018-07-07T01:21:37.864Z,0
2018-07-07T01:22:38.116Z,0
2018-07-07T01:23:38.365Z,0
2018-07-07T01:24:38.091Z,0
2018-07-07T01:25:38.090Z,0
2018-07-07T01:26:37.800Z,0
2018-07-07T01:27:38.061Z,0
2018-07-07T01:28:38.311Z,0
2018-07-07T01:29:38.036Z,0
2018-07-07T01:30:37.758Z,0
2018-07-07T01:31:38.273Z,0
2018-07-07T01:32:38.000Z,0
2018-07-07T01:33:38.252Z,0
2018-07-07T01:34:38.258Z,0
2018-07-07T01:35:37.969Z,0
2018-07-07T01:36:38.225Z,0
2018-07-07T01:37:37.981Z,0
2018-07-07T01:38:37.676Z,0
2018-07-07T01:39:38.190Z,0
2018-07-07T01:40:37.913Z,0
2018-07-07T01:41:37.630Z,0
2018-07-07T01:42:38.206Z,0
2018-07-07T01:43:38.135Z,0
2018-07-07T01:44:37.882Z,0
2018-07-07T01:45:38.055Z,0
2018-07-07T01:46:37.849Z,0
2018-07-07T01:47:38.092Z,0
2018-07-07T01:48:37.572Z,0
2018-07-07T01:49:38.094Z,0
2018-07-07T01:50:37.793Z,0
2018-07-07T01:51:37.522Z,0
2018-07-07T01:52:37.767Z,0
2018-07-07T01:53:37.752Z,0
2018-07-07T01:54:37.483Z,0
2018-07-07T01:55:37.493Z,0
2018-07-07T01:56:37.464Z,0
2018-07-07T01:57:37.708Z,0
2018-07-07T01:58:37.689Z,0
2018-07-07T01:59:37.425Z,0
2018-07-07T02:00:38.314Z,0
2018-07-07T02:01:37.401Z,0
2018-07-07T02:02:37.660Z,0
2018-07-07T02:03:37.909Z,0
2018-07-07T02:04:37.899Z,0
2018-07-07T02:05:37.618Z,0
2018-07-07T02:06:37.874Z,0
2018-07-07T02:07:37.327Z,0
2018-07-07T02:08:37.317Z,0
2018-07-07T02:09:37.836Z,0
2018-07-07T02:10:38.099Z,0
2018-07-07T02:11:37.809Z,0
2018-07-07T02:12:37.279Z,0
2018-07-07T02:13:37.525Z,0
2018-07-07T02:14:37.247Z,0
2018-07-07T02:15:37.764Z,0
2018-07-07T02:16:37.752Z,0
2018-07-07T02:17:37.213Z,0
2018-07-07T02:18:37.724Z,0
2018-07-07T02:19:37.460Z,0
2018-07-07T02:20:37.176Z,0
2018-07-07T02:21:37.428Z,0
2018-07-07T02:22:37.420Z,0
2018-07-07T02:23:37.410Z,0
2018-07-07T02:24:37.660Z,0
2018-07-07T02:25:37.649Z,0
2018-07-07T02:26:36.842Z,0
2018-07-07T02:27:37.095Z,0
2018-07-07T02:28:37.080Z,0
2018-07-07T02:29:37.068Z,0
2018-07-07T02:30:37.331Z,0
2018-07-07T02:31:37.329Z,0
2018-07-07T02:32:37.573Z,0
2018-07-07T02:33:37.556Z,0
2018-07-07T02:34:37.284Z,0
2018-07-07T02:35:37.561Z,0
2018-07-07T02:36:37.530Z,0
2018-07-07T02:37:37.002Z,0
2018-07-07T02:38:37.506Z,0
2018-07-07T02:39:37.244Z,0
2018-07-07T02:40:36.955Z,0
2018-07-07T02:41:37.207Z,0
2018-07-07T02:42:36.929Z,0
2018-07-07T02:43:37.440Z,0
2018-07-07T02:44:37.165Z,0
2018-07-07T02:45:37.183Z,0
2018-07-07T02:46:37.155Z,4
2018-07-07T02:47:37.132Z,4
2018-07-07T02:48:37.112Z,4
2018-07-07T02:49:37.373Z,0
2018-07-07T02:50:37.367Z,4
2018-07-07T02:51:37.088Z,4
2018-07-07T02:52:36.811Z,4
2018-07-07T02:53:37.351Z,4
2018-07-07T02:54:37.315Z,4
2018-07-07T02:55:37.037Z,4
2018-07-07T02:56:36.762Z,8
2018-07-07T02:57:37.272Z,4
2018-07-07T02:58:37.269Z,8
2018-07-07T02:59:36.744Z,4
2018-07-07T03:00:37.248Z,8
2018-07-07T03:01:36.714Z,8
2018-07-07T03:02:37.230Z,12
2018-07-07T03:03:37.217Z,12
2018-07-07T03:04:36.672Z,12
2018-07-07T03:05:36.658Z,16
2018-07-07T03:06:36.639Z,16
2018-07-07T03:07:36.895Z,20
2018-07-07T03:08:36.883Z,20
2018-07-07T03:09:37.152Z,24
2018-07-07T03:10:36.596Z,28
2018-07-07T03:11:37.108Z,28
2018-07-07T03:12:37.104Z,36
2018-07-07T03:13:37.093Z,36
2018-07-07T03:14:36.547Z,40
2018-07-07T03:15:37.069Z,48
2018-07-07T03:16:36.802Z,52
2018-07-07T03:17:37.041Z,56
2018-07-07T03:18:36.495Z,60
2018-07-07T03:19:36.761Z,68
2018-07-07T03:20:36.738Z,72
2018-07-07T03:21:36.729Z,80
2018-07-07T03:22:36.455Z,84
2018-07-07T03:23:36.720Z,92
2018-07-07T03:24:36.430Z,96
2018-07-07T03:25:36.679Z,104
2018-07-07T03:26:36.407Z,108
2018-07-07T03:27:36.395Z,116
2018-07-07T03:28:36.643Z,124
2018-07-07T03:29:36.889Z,132
2018-07-07T03:30:36.359Z,144
2018-07-07T03:31:36.349Z,156
2018-07-07T03:32:36.854Z,172
2018-07-07T03:33:36.843Z,188
2018-07-07T03:34:36.834Z,204
2018-07-07T03:35:36.294Z,212
2018-07-07T03:36:36.286Z,220
2018-07-07T03:37:36.536Z,232
2018-07-07T03:38:36.251Z,240
2018-07-07T03:39:36.514Z,256
2018-07-07T03:40:36.229Z,264
2018-07-07T03:41:36.750Z,272
2018-07-07T03:42:36.211Z,276
2018-07-07T03:43:36.193Z,280
2018-07-07T03:44:36.445Z,284
2018-07-07T03:45:36.633Z,300
2018-07-07T03:46:36.698Z,308
2018-07-07T03:47:36.681Z,320
2018-07-07T03:48:36.134Z,324
2018-07-07T03:49:36.393Z,328
2018-07-07T03:50:36.376Z,328
2018-07-07T03:51:36.630Z,324
2018-07-07T03:52:36.345Z,328
2018-07-07T03:53:36.068Z,336
2018-07-07T03:54:36.591Z,336
2018-07-07T03:55:36.060Z,332
2018-07-07T03:56:36.571Z,332
2018-07-07T03:57:36.292Z,332
2018-07-07T03:58:36.013Z,336
2018-07-07T03:59:36.537Z,348
2018-07-07T04:00:36.512Z,360
2018-07-07T04:01:36.511Z,380
2018-07-07T04:02:36.241Z,392
2018-07-07T04:03:36.212Z,408
2018-07-07T04:04:35.946Z,424
2018-07-07T04:05:35.925Z,444
2018-07-07T04:06:36.441Z,452
2018-07-07T04:07:36.434Z,464
2018-07-07T04:08:36.155Z,472
2018-07-07T04:09:36.411Z,480
2018-07-07T04:10:36.399Z,500
2018-07-07T04:11:36.117Z,520
2018-07-07T04:12:36.104Z,540
2018-07-07T04:13:36.095Z,560
2018-07-07T04:14:36.075Z,580
2018-07-07T04:15:36.336Z,604
2018-07-07T04:16:35.531Z,636
2018-07-07T04:17:36.302Z,656
2018-07-07T04:18:36.034Z,688
2018-07-07T04:19:35.757Z,728
2018-07-07T04:20:35.754Z,760
2018-07-07T04:21:35.998Z,780
2018-07-07T04:22:35.984Z,776
2018-07-07T04:23:36.230Z,776
2018-07-07T04:24:36.222Z,828
2018-07-07T04:25:35.946Z,856
2018-07-07T04:26:36.197Z,816
2018-07-07T04:27:36.189Z,804
2018-07-07T04:28:35.908Z,832
2018-07-07T04:29:35.891Z,888
2018-07-07T04:30:36.027Z,920
2018-07-07T04:31:36.135Z,948
2018-07-07T04:32:36.126Z,996
2018-07-07T04:33:36.107Z,1012
2018-07-07T04:34:35.304Z,1064
2018-07-07T04:35:35.827Z,1132
2018-07-07T04:36:36.076Z,1264
2018-07-07T04:37:35.803Z,1420
2018-07-07T04:38:35.516Z,1456
2018-07-07T04:39:35.768Z,1420
2018-07-07T04:40:36.024Z,1364
2018-07-07T04:41:36.005Z,1320
2018-07-07T04:42:35.737Z,1328
2018-07-07T04:43:36.036Z,1340
2018-07-07T04:44:35.984Z,1348
2018-07-07T04:45:35.965Z,1384
2018-07-07T04:46:35.696Z,1380
2018-07-07T04:47:35.937Z,1400
2018-07-07T04:48:35.920Z,1472
2018-07-07T04:49:35.909Z,1528
2018-07-07T04:50:35.639Z,1564
2018-07-07T04:51:35.618Z,1588
2018-07-07T04:52:36.054Z,1620
2018-07-07T04:53:35.596Z,1600
2018-07-07T04:54:35.855Z,1564
2018-07-07T04:55:35.307Z,1556
2018-07-07T04:56:35.292Z,1576
2018-07-07T04:57:35.547Z,1612
2018-07-07T04:58:35.537Z,1648
2018-07-07T04:59:35.789Z,1680
2018-07-07T05:00:35.509Z,1708
2018-07-07T05:01:35.765Z,1744
2018-07-07T05:02:35.749Z,1744
2018-07-07T05:03:35.207Z,1756
2018-07-07T05:04:35.963Z,1664
2018-07-07T05:05:35.504Z,1608
2018-07-07T05:06:35.745Z,1604
2018-07-07T05:07:35.164Z,1588
2018-07-07T05:08:35.158Z,1576
2018-07-07T05:09:35.674Z,1580
2018-07-07T05:10:34.862Z,1552
2018-07-07T05:11:35.640Z,1508
2018-07-07T05:12:35.361Z,1476
2018-07-07T05:13:35.612Z,1468
2018-07-07T05:14:35.339Z,1484
2018-07-07T05:15:35.400Z,1516
2018-07-07T05:16:35.046Z,1540
2018-07-07T05:17:35.045Z,1544
2018-07-07T05:18:35.024Z,1552
2018-07-07T05:19:35.552Z,1588
2018-07-07T05:20:35.572Z,1624
2018-07-07T05:21:35.259Z,1612
2018-07-07T05:22:35.507Z,1612
2018-07-07T05:23:35.233Z,1620
2018-07-07T05:24:34.951Z,1636
2018-07-07T05:25:34.675Z,1676
2018-07-07T05:26:35.193Z,1816
2018-07-07T05:27:35.446Z,2040
2018-07-07T05:28:35.169Z,2124
2018-07-07T05:29:35.160Z,2036
2018-07-07T05:30:35.144Z,1940
2018-07-07T05:31:35.398Z,1888
2018-07-07T05:32:35.387Z,1832
2018-07-07T05:33:34.841Z,1828
2018-07-07T05:34:35.363Z,1844
2018-07-07T05:35:35.343Z,1884
2018-07-07T05:36:35.068Z,1908
2018-07-07T05:37:35.318Z,1996
2018-07-07T05:38:35.047Z,2196
2018-07-07T05:39:35.292Z,2472
2018-07-07T05:40:35.286Z,2736
2018-07-07T05:41:34.744Z,2972
2018-07-07T05:42:34.733Z,3096
2018-07-07T05:43:34.980Z,3176
2018-07-07T05:44:35.233Z,3176
2018-07-07T05:45:35.159Z,3148
2018-07-07T05:46:34.946Z,3124
2018-07-07T05:47:34.682Z,3172
2018-07-07T05:48:34.667Z,3172
2018-07-07T05:49:34.649Z,3124
2018-07-07T05:50:34.953Z,3044
2018-07-07T05:51:34.897Z,3000
2018-07-07T05:52:34.873Z,3044
2018-07-07T05:53:34.875Z,3108
2018-07-07T05:54:34.852Z,3020
2018-07-07T05:55:35.105Z,2724
2018-07-07T05:56:35.094Z,2332
2018-07-07T05:57:35.090Z,2112
2018-07-07T05:58:34.806Z,2024
2018-07-07T05:59:34.800Z,2000
2018-07-07T06:00:34.782Z,1952
2018-07-07T06:01:34.765Z,1932
2018-07-07T06:02:34.491Z,1932
2018-07-07T06:03:34.748Z,1932
2018-07-07T06:04:34.472Z,1932
2018-07-07T06:05:34.987Z,1928
2018-07-07T06:06:34.708Z,1916
2018-07-07T06:07:34.437Z,1904
2018-07-07T06:08:34.687Z,1920
2018-07-07T06:09:34.151Z,1908
2018-07-07T06:10:34.403Z,1896
2018-07-07T06:11:34.387Z,1888
2018-07-07T06:12:34.383Z,1892
2018-07-07T06:13:34.374Z,1908
2018-07-07T06:14:34.816Z,1916
2018-07-07T06:15:34.879Z,1936
2018-07-07T06:16:34.861Z,1956
2018-07-07T06:17:34.888Z,1988
2018-07-07T06:18:34.575Z,2024
2018-07-07T06:19:34.827Z,2036
2018-07-07T06:20:34.820Z,2284
2018-07-07T06:21:34.541Z,8032
2018-07-07T06:22:34.265Z,11320
2018-07-07T06:23:34.788Z,3936
2018-07-07T06:24:34.771Z,2300
2018-07-07T06:25:34.761Z,6716
2018-07-07T06:26:35.115Z,16096
2018-07-07T06:27:34.476Z,10660
2018-07-07T06:28:34.194Z,3152
2018-07-07T06:29:34.720Z,2060
2018-07-07T06:30:34.174Z,2056
2018-07-07T06:31:34.421Z,2068
2018-07-07T06:32:34.423Z,2080
2018-07-07T06:33:34.156Z,2092
2018-07-07T06:34:34.394Z,2096
2018-07-07T06:35:34.386Z,2108
2018-07-07T06:36:34.110Z,2108
2018-07-07T06:37:34.506Z,2112
2018-07-07T06:38:34.086Z,2124
2018-07-07T06:39:34.619Z,2136
2018-07-07T06:40:34.589Z,2140
2018-07-07T06:41:34.321Z,2144
2018-07-07T06:42:34.306Z,2152
2018-07-07T06:43:34.302Z,2164
2018-07-07T06:44:34.291Z,2168
2018-07-07T06:45:34.014Z,2180
2018-07-07T06:46:34.004Z,2188
2018-07-07T06:47:34.540Z,2188
2018-07-07T06:48:34.244Z,2200
2018-07-07T06:49:34.242Z,2196
2018-07-07T06:50:34.496Z,2260
2018-07-07T06:51:33.948Z,7596
2018-07-07T06:52:34.206Z,20128
2018-07-07T06:53:34.501Z,27456
2018-07-07T06:54:34.454Z,27808
2018-07-07T06:55:33.902Z,28640
2018-07-07T06:56:33.901Z,28288
2018-07-07T06:57:34.155Z,28064
2018-07-07T06:58:34.143Z,27072
2018-07-07T06:59:34.167Z,19104
2018-07-07T07:00:33.599Z,8828
2018-07-07T07:01:33.854Z,2792
2018-07-07T07:02:33.580Z,2596
2018-07-07T07:03:34.260Z,2520
2018-07-07T07:04:34.085Z,2500
2018-07-07T07:05:34.349Z,2492
2018-07-07T07:06:34.362Z,2492
2018-07-07T07:07:34.063Z,2504
2018-07-07T07:08:33.790Z,2532
2018-07-07T07:09:34.359Z,2556
2018-07-07T07:10:34.039Z,2596
2018-07-07T07:11:34.289Z,2648
2018-07-07T07:12:34.013Z,2724
2018-07-07T07:13:34.276Z,2800
2018-07-07T07:14:34.260Z,2840
2018-07-07T07:15:34.255Z,6412
2018-07-07T07:16:34.245Z,15168
2018-07-07T07:17:33.759Z,23968
2018-07-07T07:18:34.253Z,31488
2018-07-07T07:19:33.703Z,34528
2018-07-07T07:20:34.221Z,33408
2018-07-07T07:21:34.208Z,33216
2018-07-07T07:22:33.675Z,34144
2018-07-07T07:23:34.189Z,37184
2018-07-07T07:24:34.200Z,39520
2018-07-07T07:25:33.662Z,40608
2018-07-07T07:26:34.196Z,40064
2018-07-07T07:27:33.910Z,39968
2018-07-07T07:28:33.898Z,39872
2018-07-07T07:29:33.904Z,39040
2018-07-07T07:30:33.897Z,40096
2018-07-07T07:31:34.152Z,41824
2018-07-07T07:32:33.883Z,42240
2018-07-07T07:33:33.879Z,41536
2018-07-07T07:34:33.880Z,39488
2018-07-07T07:35:33.866Z,39296
2018-07-07T07:36:33.872Z,39968
2018-07-07T07:37:34.132Z,40064
2018-07-07T07:38:33.861Z,40544
2018-07-07T07:39:34.129Z,42464
2018-07-07T07:40:33.859Z,45632
2018-07-07T07:41:33.588Z,46176
2018-07-07T07:42:33.843Z,45920
2018-07-07T07:43:33.841Z,46944
2018-07-07T07:44:34.109Z,49472
2018-07-07T07:45:34.315Z,49312
2018-07-07T07:46:34.097Z,46464
2018-07-07T07:47:34.132Z,43904
2018-07-07T07:48:34.092Z,42944
2018-07-07T07:49:33.828Z,43040
2018-07-07T07:50:34.090Z,42560
2018-07-07T07:51:34.094Z,42496
2018-07-07T07:52:33.297Z,45568
2018-07-07T07:53:34.084Z,48288
2018-07-07T07:54:33.826Z,48128
2018-07-07T07:55:33.556Z,45056
2018-07-07T07:56:33.553Z,43072
2018-07-07T07:57:33.820Z,44512
2018-07-07T07:58:33.819Z,45120
2018-07-07T07:59:33.814Z,46048
2018-07-07T08:00:34.079Z,47328
2018-07-07T08:01:33.556Z,48160
2018-07-07T08:02:33.544Z,47552
2018-07-07T08:03:34.132Z,44736
2018-07-07T08:04:33.543Z,43168
2018-07-07T08:05:33.806Z,44096
2018-07-07T08:06:33.810Z,47168
2018-07-07T08:07:33.812Z,49216
2018-07-07T08:08:33.540Z,49248
2018-07-07T08:09:33.811Z,48448
2018-07-07T08:10:34.074Z,48832
2018-07-07T08:11:33.546Z,47136
2018-07-07T08:12:33.807Z,45856
2018-07-07T08:13:33.815Z,43968
2018-07-07T08:14:33.548Z,45760
2018-07-07T08:15:33.814Z,48384
2018-07-07T08:16:33.815Z,52128
2018-07-07T08:17:34.078Z,53088
2018-07-07T08:18:33.543Z,51936
2018-07-07T08:19:33.810Z,50048
2018-07-07T08:20:33.808Z,47936
2018-07-07T08:21:34.075Z,46752
2018-07-07T08:22:33.896Z,46016
2018-07-07T08:23:33.815Z,47072
2018-07-07T08:24:33.544Z,49504
2018-07-07T08:25:33.556Z,51232
2018-07-07T08:26:34.082Z,49632
2018-07-07T08:27:33.554Z,47296
2018-07-07T08:28:34.395Z,44864
2018-07-07T08:29:33.551Z,41600
2018-07-07T08:30:34.090Z,40384
2018-07-07T08:31:33.823Z,44032
2018-07-07T08:32:34.083Z,36672
2018-07-07T08:33:34.091Z,39488
2018-07-07T08:34:34.454Z,33504
2018-07-07T08:35:33.822Z,48864
2018-07-07T08:36:34.416Z,25664
2018-07-07T08:37:34.112Z,32032
2018-07-07T08:38:33.826Z,36384
2018-07-07T08:39:33.561Z,15936
2018-07-07T08:40:33.565Z,19616
2018-07-07T08:41:33.833Z,20672
2018-07-07T08:42:34.098Z,6488
2018-07-07T08:43:33.837Z,7744
2018-07-07T08:44:33.300Z,5148
2018-07-07T08:45:33.562Z,4800
2018-07-07T08:46:33.300Z,5548
2018-07-07T08:47:34.084Z,6316
2018-07-07T08:48:33.823Z,5544
2018-07-07T08:49:33.938Z,5264
2018-07-07T08:50:33.558Z,5168
2018-07-07T08:51:33.820Z,4896
2018-07-07T08:52:34.075Z,6016
2018-07-07T08:53:33.815Z,6676
2018-07-07T08:54:34.081Z,6828
2018-07-07T08:55:34.070Z,5648
2018-07-07T08:56:33.267Z,12056
2018-07-07T08:57:33.802Z,36000
2018-07-07T08:58:33.801Z,46816
2018-07-07T08:59:33.523Z,68320
2018-07-07T09:00:33.785Z,77728
2018-07-07T09:01:33.785Z,73312
2018-07-07T09:02:33.780Z,68160
2018-07-07T09:03:34.062Z,62720
2018-07-07T09:04:34.047Z,58752
2018-07-07T09:05:33.768Z,59072
2018-07-07T09:06:33.774Z,65472
2018-07-07T09:07:33.782Z,73856
2018-07-07T09:08:33.764Z,81888
2018-07-07T09:09:33.779Z,88256
2018-07-07T09:10:33.504Z,94816
2018-07-07T09:11:33.808Z,93952
2018-07-07T09:12:33.498Z,86496
2018-07-07T09:13:33.763Z,77280
2018-07-07T09:14:33.773Z,70560
2018-07-07T09:15:33.763Z,64320
2018-07-07T09:16:33.768Z,61056
2018-07-07T09:17:34.030Z,40576
2018-07-07T09:18:34.034Z,51520
2018-07-07T09:19:33.771Z,25792
2018-07-07T09:20:33.245Z,41984
2018-07-07T09:21:33.503Z,28096
2018-07-07T09:22:33.506Z,22496
2018-07-07T09:23:33.823Z,14180
2018-07-07T09:24:34.244Z,31616
2018-07-07T09:25:33.769Z,24000
2018-07-07T09:26:34.032Z,23968
2018-07-07T09:27:34.034Z,34880
2018-07-07T09:28:33.774Z,59136
2018-07-07T09:29:33.500Z,38624
2018-07-07T09:30:33.779Z,19392
2018-07-07T09:31:33.239Z,17856
2018-07-07T09:32:34.044Z,35008
2018-07-07T09:33:33.508Z,49664
2018-07-07T09:34:34.034Z,43840
2018-07-07T09:35:33.772Z,66112
2018-07-07T09:36:33.500Z,68288
2018-07-07T09:37:33.238Z,57024
2018-07-07T09:38:33.508Z,53664
2018-07-07T09:39:33.775Z,65472
2018-07-07T09:40:33.500Z,70336
2018-07-07T09:41:33.240Z,66400
2018-07-07T09:42:33.238Z,40640
2018-07-07T09:43:33.509Z,32896
2018-07-07T09:44:34.032Z,34144
2018-07-07T09:45:33.964Z,13092
2018-07-07T09:46:33.766Z,12284
2018-07-07T09:47:33.766Z,9384
2018-07-07T09:48:33.758Z,14772
2018-07-07T09:49:34.036Z,9488
2018-07-07T09:50:33.777Z,10796
2018-07-07T09:51:33.504Z,27008
2018-07-07T09:52:33.490Z,9364
2018-07-07T09:53:34.020Z,9608
2018-07-07T09:54:34.037Z,9804
2018-07-07T09:55:33.749Z,6252
2018-07-07T09:56:33.931Z,7272
2018-07-07T09:57:34.010Z,7040
2018-07-07T09:58:34.005Z,9596
2018-07-07T09:59:33.745Z,6700
2018-07-07T10:00:33.738Z,6296
2018-07-07T10:01:33.747Z,8128
2018-07-07T10:02:33.475Z,8676
2018-07-07T10:03:33.466Z,8980
2018-07-07T10:04:33.726Z,7000
2018-07-07T10:05:33.723Z,5444
2018-07-07T10:06:33.710Z,8648
2018-07-07T10:07:33.514Z,11164
2018-07-07T10:08:33.445Z,10856
2018-07-07T10:09:33.975Z,13132
2018-07-07T10:10:33.435Z,5304
2018-07-07T10:11:33.959Z,5428
2018-07-07T10:12:33.164Z,5244
2018-07-07T10:13:34.356Z,6568
2018-07-07T10:14:33.691Z,8516
2018-07-07T10:15:33.688Z,9732
2018-07-07T10:16:33.936Z,16560
2018-07-07T10:17:33.665Z,10728
2018-07-07T10:18:33.396Z,27360
2018-07-07T10:19:33.921Z,6128
2018-07-07T10:20:33.953Z,33376
2018-07-07T10:21:33.648Z,18432
2018-07-07T10:22:33.654Z,19904
2018-07-07T10:23:33.904Z,93952
2018-07-07T10:24:33.636Z,92192
2018-07-07T10:25:33.374Z,43904
2018-07-07T10:26:33.362Z,31360
2018-07-07T10:27:33.366Z,75392
2018-07-07T10:28:33.626Z,60512
2018-07-07T10:29:33.646Z,87968
2018-07-07T10:30:33.634Z,86048
2018-07-07T10:31:34.036Z,87904
2018-07-07T10:32:33.621Z,90784
2018-07-07T10:33:33.348Z,93664
2018-07-07T10:34:33.358Z,89248
2018-07-07T10:35:33.613Z,94624
2018-07-07T10:36:33.880Z,93952
2018-07-07T10:37:33.537Z,43232
2018-07-07T10:38:33.885Z,45536
2018-07-07T10:39:33.885Z,94592
2018-07-07T10:40:33.883Z,52224
2018-07-07T10:41:33.623Z,90112
2018-07-07T10:42:33.889Z,88224
2018-07-07T10:43:33.366Z,83808
2018-07-07T10:44:33.909Z,84128
2018-07-07T10:45:33.252Z,85056
2018-07-07T10:46:33.905Z,10584
2018-07-07T10:47:33.883Z,90496
2018-07-07T10:48:33.648Z,90944
2018-07-07T10:49:33.938Z,89312
2018-07-07T10:50:33.680Z,88000
2018-07-07T10:51:33.127Z,86720
2018-07-07T10:52:33.928Z,89280
2018-07-07T10:53:33.398Z,92896
2018-07-07T10:54:33.669Z,98464
2018-07-07T10:55:33.466Z,102624
2018-07-07T10:56:33.676Z,109152
2018-07-07T10:57:33.944Z,106848
2018-07-07T10:58:33.419Z,102560
2018-07-07T10:59:33.699Z,99264
2018-07-07T11:00:33.704Z,98080
2018-07-07T11:01:33.969Z,96224
2018-07-07T11:02:33.792Z,93568
2018-07-07T11:03:33.447Z,95104
2018-07-07T11:04:33.461Z,95680
2018-07-07T11:05:33.725Z,94496
2018-07-07T11:06:33.743Z,96864
2018-07-07T11:07:33.758Z,92416
2018-07-07T11:08:33.487Z,87744
2018-07-07T11:09:33.746Z,85216
2018-07-07T11:10:34.022Z,59776
2018-07-07T11:11:33.765Z,76704
2018-07-07T11:12:33.769Z,79264
2018-07-07T11:13:33.787Z,83072
2018-07-07T11:14:34.038Z,87136
2018-07-07T11:15:33.788Z,92416
2018-07-07T11:16:33.527Z,94592
2018-07-07T11:17:33.801Z,96416
2018-07-07T11:18:33.546Z,100512
2018-07-07T11:19:33.812Z,98528
2018-07-07T11:20:33.822Z,100896
2018-07-07T11:21:33.556Z,100224
2018-07-07T11:22:33.827Z,97952
2018-07-07T11:23:33.314Z,99744
2018-07-07T11:24:33.848Z,99648
2018-07-07T11:25:33.587Z,98208
2018-07-07T11:26:34.134Z,96544
2018-07-07T11:27:33.865Z,90784
2018-07-07T11:28:33.872Z,88224
2018-07-07T11:29:33.870Z,87936
2018-07-07T11:30:34.158Z,88992
2018-07-07T11:31:33.623Z,84000
2018-07-07T11:32:33.646Z,87264
2018-07-07T11:33:34.169Z,87872
2018-07-07T11:34:33.399Z,96448
2018-07-07T11:35:33.919Z,100128
2018-07-07T11:36:34.521Z,104288
2018-07-07T11:37:33.944Z,107776
2018-07-07T11:38:33.941Z,106464
2018-07-07T11:39:33.679Z,106560
2018-07-07T11:40:34.225Z,104032
2018-07-07T11:41:33.960Z,94368
2018-07-07T11:42:33.975Z,82848
2018-07-07T11:43:33.714Z,73504
2018-07-07T11:44:34.248Z,61856
2018-07-07T11:45:34.194Z,54208
2018-07-07T11:46:34.295Z,51008
2018-07-07T11:47:33.481Z,53504
2018-07-07T11:48:34.020Z,58112
2018-07-07T11:49:33.752Z,65536
2018-07-07T11:50:34.251Z,79200
2018-07-07T11:51:34.050Z,29088
2018-07-07T11:52:33.782Z,117216
2018-07-07T11:53:34.052Z,120192
2018-07-07T11:54:34.063Z,54464
2018-07-07T11:55:34.334Z,34560
2018-07-07T11:56:34.065Z,101504
2018-07-07T11:57:33.817Z,69312
2018-07-07T11:58:34.086Z,69408
2018-07-07T11:59:33.888Z,58368
2018-07-07T12:00:34.361Z,51904
2018-07-07T12:01:34.109Z,48928
2018-07-07T12:02:33.588Z,53664
2018-07-07T12:03:34.118Z,61344
2018-07-07T12:04:33.972Z,73696
2018-07-07T12:05:34.139Z,89504
2018-07-07T12:06:33.881Z,89952
2018-07-07T12:07:34.164Z,109792
2018-07-07T12:08:34.393Z,116128
2018-07-07T12:09:34.161Z,113952
2018-07-07T12:10:34.178Z,108448
2018-07-07T12:11:35.003Z,94720
2018-07-07T12:12:34.454Z,95648
2018-07-07T12:13:34.461Z,84032
2018-07-07T12:14:34.471Z,81824
2018-07-07T12:15:33.938Z,83264
2018-07-07T12:16:33.952Z,84576
2018-07-07T12:17:34.491Z,87776
2018-07-07T12:18:34.221Z,84736
2018-07-07T12:19:34.240Z,97024
2018-07-07T12:20:33.978Z,102208
2018-07-07T12:21:34.249Z,99072
2018-07-07T12:22:34.261Z,96896
2018-07-07T12:23:34.269Z,93312
2018-07-07T12:24:34.277Z,81312
2018-07-07T12:25:34.545Z,85888
2018-07-07T12:26:33.754Z,83360
2018-07-07T12:27:34.559Z,45024
2018-07-07T12:28:34.558Z,92672
2018-07-07T12:29:34.312Z,96192
2018-07-07T12:30:34.319Z,100864
2018-07-07T12:31:34.455Z,105632
2018-07-07T12:32:34.593Z,104320
2018-07-07T12:33:34.599Z,101376
2018-07-07T12:34:34.350Z,80160
2018-07-07T12:35:34.627Z,82112
2018-07-07T12:36:34.136Z,73632
2018-07-07T12:37:34.370Z,75296
2018-07-07T12:38:34.638Z,71904
2018-07-07T12:39:34.385Z,74816
2018-07-07T12:40:35.054Z,86944
2018-07-07T12:41:34.128Z,87776
2018-07-07T12:42:34.140Z,91680
2018-07-07T12:43:34.198Z,47296
2018-07-07T12:44:34.163Z,106592
2018-07-07T12:45:34.429Z,102848
2018-07-07T12:46:33.902Z,100608
2018-07-07T12:47:34.450Z,97472
2018-07-07T12:48:34.182Z,93952
2018-07-07T12:49:34.716Z,91136
2018-07-07T12:50:34.730Z,85280
2018-07-07T12:51:34.728Z,71136
2018-07-07T12:52:34.522Z,73856
2018-07-07T12:53:34.490Z,78528
2018-07-07T12:54:34.228Z,87776
2018-07-07T12:55:34.788Z,74048
2018-07-07T12:56:34.245Z,86816
2018-07-07T12:57:34.510Z,80224
2018-07-07T12:58:34.255Z,84352
2018-07-07T12:59:34.270Z,77056
2018-07-07T13:00:34.287Z,86048
2018-07-07T13:01:34.283Z,94720
2018-07-07T13:02:34.817Z,97088
2018-07-07T13:03:34.559Z,100160
2018-07-07T13:04:34.301Z,99296
2018-07-07T13:05:34.837Z,100768
2018-07-07T13:06:34.052Z,94848
2018-07-07T13:07:34.062Z,89408
2018-07-07T13:08:34.587Z,86400
2018-07-07T13:09:34.599Z,85472
2018-07-07T13:10:34.878Z,85728
2018-07-07T13:11:34.353Z,88640
2018-07-07T13:12:34.624Z,98528
2018-07-07T13:13:34.364Z,108480
2018-07-07T13:14:34.647Z,109696
2018-07-07T13:15:34.381Z,102048
2018-07-07T13:16:34.658Z,97824
2018-07-07T13:17:34.951Z,91968
2018-07-07T13:18:34.404Z,92000
2018-07-07T13:19:34.675Z,91392
2018-07-07T13:20:34.688Z,86592
2018-07-07T13:21:34.688Z,74880
2018-07-07T13:22:34.436Z,80416
2018-07-07T13:23:34.441Z,75424
2018-07-07T13:24:34.708Z,73696
2018-07-07T13:25:34.455Z,67392
2018-07-07T13:26:34.882Z,65312
2018-07-07T13:27:34.742Z,63072